createdAt,value
2022-08-22T00:01:58.825Z,74.41
2022-08-22T00:02:44.478Z,72.35
2022-08-22T00:02:45.887Z,63.76
2022-08-22T00:02:46.391Z,69.44
2022-08-22T00:03:04.985Z,49.43
2022-08-22T00:03:11.648Z,70.94
2022-08-22T00:04:35.983Z,77.16
2022-08-22T00:07:20.876Z,79.90
2022-08-22T00:10:04.101Z,80.91
2022-08-22T00:12:39.719Z,83.37
2022-08-22T00:15:31.490Z,83.51
2022-08-22T00:18:10.639Z,84.06
2022-08-22T00:20:48.970Z,85.84
2022-08-22T00:23:23.485Z,85.73
2022-08-22T00:26:01.167Z,84.96
2022-08-22T00:28:35.774Z,84.29
2022-08-22T00:31:20.691Z,83.85
2022-08-22T00:33:55.498Z,82.41
2022-08-22T00:36:31.821Z,82.95
2022-08-22T00:39:13.872Z,82.69
2022-08-22T00:42:45.211Z,82.94
2022-08-22T00:45:43.755Z,81.41
2022-08-22T00:48:42.100Z,79.79
2022-08-22T00:51:44.647Z,81.12
2022-08-22T00:54:28.651Z,82.32
2022-08-22T00:57:31.193Z,82.48
2022-08-22T01:00:19.427Z,82.04
2022-08-22T01:03:27.569Z,81.04
2022-08-22T01:06:18.476Z,81.84
2022-08-22T01:09:03.218Z,79.96
2022-08-22T01:12:05.058Z,78.37
2022-08-22T01:14:48.292Z,77.71
2022-08-22T01:18:05.863Z,76.95
2022-08-22T01:21:44.108Z,77.11
2022-08-22T01:25:21.482Z,76.14
2022-08-22T01:28:51.959Z,76.43
2022-08-22T01:32:19.682Z,76.19
2022-08-22T01:35:14.862Z,77.00
2022-08-22T01:38:21.638Z,76.75
2022-08-22T01:41:28.840Z,75.90
2022-08-22T01:44:15.741Z,76.54
2022-08-22T01:47:00.513Z,76.08
2022-08-22T01:49:40.734Z,76.96
2022-08-22T01:52:19.633Z,76.49
2022-08-22T01:54:56.128Z,77.57
2022-08-22T01:57:25.703Z,78.46
2022-08-22T01:59:57.537Z,77.30
2022-08-22T02:02:57.250Z,77.29
2022-08-22T02:05:30.974Z,76.78
2022-08-22T02:08:17.398Z,78.03
2022-08-22T02:10:59.531Z,78.98
2022-08-22T02:13:46.603Z,77.60
2022-08-22T02:16:31.833Z,78.07
2022-08-22T02:19:21.429Z,78.25
2022-08-22T02:21:56.700Z,78.29
2022-08-22T02:24:45.731Z,77.81
2022-08-22T02:27:31.511Z,78.56
2022-08-22T02:30:07.982Z,79.53
2022-08-22T02:32:54.106Z,80.05
2022-08-22T02:35:31.483Z,79.76
2022-08-22T02:38:22.630Z,79.85
2022-08-22T02:41:08.762Z,80.48
2022-08-22T02:43:49.615Z,81.33
2022-08-22T02:46:31.975Z,81.76
2022-08-22T02:49:11.773Z,82.32
2022-08-22T02:51:56.283Z,81.31
2022-08-22T02:54:30.452Z,82.08
2022-08-22T02:57:14.496Z,80.92
2022-08-22T03:00:07.095Z,80.52
2022-08-22T03:03:15.025Z,79.15
2022-08-22T03:06:00.881Z,78.85
2022-08-22T03:08:32.949Z,77.93
2022-08-22T03:11:15.671Z,79.30
2022-08-22T03:14:03.211Z,79.77
2022-08-22T03:16:40.633Z,80.13
2022-08-22T03:19:18.797Z,80.30
2022-08-22T03:21:57.558Z,82.03
2022-08-22T03:24:39.734Z,82.29
2022-08-22T03:27:32.516Z,81.63
2022-08-22T03:30:10.777Z,81.52
2022-08-22T03:32:53.288Z,81.05
2022-08-22T03:35:38.787Z,81.31
2022-08-22T03:38:20.101Z,82.00
2022-08-22T03:41:18.557Z,81.84
2022-08-22T03:44:21.542Z,82.14
2022-08-22T03:47:24.863Z,84.28
2022-08-22T03:50:54.725Z,87.29
2022-08-22T03:54:13.462Z,88.72
2022-08-22T03:57:27.743Z,88.73
2022-08-22T04:00:19.399Z,89.29
2022-08-22T04:03:31.535Z,89.71
2022-08-22T04:06:56.277Z,89.38
2022-08-22T04:10:07.239Z,89.13
2022-08-22T04:13:03.772Z,88.37
2022-08-22T04:16:30.011Z,87.93
2022-08-22T04:19:29.890Z,87.94
2022-08-22T04:22:25.399Z,86.86
2022-08-22T04:25:03.690Z,84.96
2022-08-22T04:27:43.759Z,85.36
2022-08-22T04:30:23.870Z,84.88
2022-08-22T04:33:02.474Z,84.36
2022-08-22T04:35:35.790Z,82.95
2022-08-22T04:38:14.331Z,82.85
2022-08-22T04:40:50.201Z,83.59
2022-08-22T04:43:28.008Z,84.29
2022-08-22T04:46:05.822Z,83.42
2022-08-22T04:48:40.468Z,82.71
2022-08-22T04:51:20.787Z,81.63
2022-08-22T04:54:30.814Z,80.10
2022-08-22T04:57:21.025Z,78.26
2022-08-22T04:59:50.424Z,76.89
2022-08-22T05:02:23.917Z,75.49
2022-08-22T05:05:02.316Z,74.22
2022-08-22T05:07:39.637Z,71.24
2022-08-22T05:10:17.123Z,69.04
2022-08-22T05:12:52.771Z,66.42
2022-08-22T05:15:25.976Z,65.26
2022-08-22T05:18:02.218Z,62.27
2022-08-22T05:20:30.971Z,60.99
2022-08-22T05:23:17.044Z,60.19
2022-08-22T05:25:50.041Z,59.19
2022-08-22T05:28:35.311Z,58.17
2022-08-22T05:31:08.732Z,58.74
2022-08-22T05:33:44.392Z,57.12
2022-08-22T05:36:20.257Z,56.02
2022-08-22T05:38:56.973Z,53.93
2022-08-22T05:41:28.853Z,52.45
2022-08-22T05:43:56.034Z,51.54
2022-08-22T05:46:32.331Z,49.73
2022-08-22T05:49:03.148Z,48.30
2022-08-22T05:51:45.133Z,47.67
2022-08-22T05:54:18.981Z,47.40
2022-08-22T05:56:54.790Z,44.19
2022-08-22T05:59:29.893Z,44.16
2022-08-22T06:02:08.831Z,44.64
2022-08-22T06:04:49.554Z,45.29
2022-08-22T06:07:25.219Z,43.46
2022-08-22T06:10:20.624Z,43.45
2022-08-22T06:13:00.295Z,43.02
2022-08-22T06:15:36.129Z,43.03
2022-08-22T06:18:09.987Z,42.78
2022-08-22T06:20:43.363Z,42.48
2022-08-22T06:23:20.366Z,40.59
2022-08-22T06:25:52.219Z,40.10
2022-08-22T06:28:25.001Z,39.16
2022-08-22T06:30:56.969Z,38.00
2022-08-22T06:33:29.970Z,37.66
2022-08-22T06:36:06.017Z,37.17
2022-08-22T06:38:53.786Z,36.78
2022-08-22T06:41:28.678Z,37.06
2022-08-22T06:43:59.095Z,36.26
2022-08-22T06:46:31.637Z,34.05
2022-08-22T06:49:02.676Z,33.17
2022-08-22T06:51:31.004Z,33.62
2022-08-22T06:54:03.284Z,32.79
2022-08-22T06:56:38.775Z,32.84
2022-08-22T06:59:12.646Z,32.24
2022-08-22T07:01:50.447Z,31.70
2022-08-22T07:04:21.323Z,32.55
2022-08-22T07:06:51.132Z,32.45
2022-08-22T07:09:23.939Z,32.26
2022-08-22T07:11:55.227Z,31.87
2022-08-22T07:14:31.188Z,32.79
2022-08-22T07:17:01.702Z,32.27
2022-08-22T07:19:32.738Z,32.05
2022-08-22T07:22:12.973Z,32.13
2022-08-22T07:24:47.362Z,32.25
2022-08-22T07:27:40.059Z,33.77
2022-08-22T07:30:13.089Z,36.98
2022-08-22T07:32:51.742Z,37.33
2022-08-22T07:35:26.802Z,37.70
2022-08-22T07:38:08.258Z,36.06
2022-08-22T07:40:55.432Z,34.36
2022-08-22T07:43:33.986Z,34.33
2022-08-22T07:46:21.142Z,33.14
2022-08-22T07:49:08.609Z,32.69
2022-08-22T07:51:44.332Z,34.16
2022-08-22T07:57:59.738Z,31.99
2022-08-22T08:01:38.221Z,31.08
2022-08-22T08:09:56.283Z,28.71
2022-08-22T10:19:38.210Z,34.00
2022-08-22T10:47:48.260Z,31.70
2022-08-22T11:09:30.295Z,28.06
2022-08-22T11:20:59.224Z,30.57
2022-08-22T11:37:11.550Z,32.98
2022-08-22T11:44:21.619Z,31.99
2022-08-22T12:43:57.646Z,36.78
2022-08-22T13:50:08.206Z,37.62
2022-08-22T13:53:22.264Z,36.93
2022-08-22T14:05:02.036Z,38.32
2022-08-22T14:45:42.594Z,36.83
2022-08-22T15:22:57.723Z,35.53
2022-08-22T15:30:57.180Z,35.43
2022-08-22T15:34:25.812Z,35.09
2022-08-22T15:51:35.739Z,35.90
2022-08-22T16:12:50.697Z,36.28
2022-08-22T16:20:26.682Z,36.27
2022-08-22T16:41:50.890Z,37.91
2022-08-22T16:46:11.024Z,38.07
2022-08-22T18:20:40.528Z,44.50
2022-08-22T20:05:01.234Z,51.95
2022-08-22T21:21:48.695Z,50.06
2022-08-22T22:13:27.166Z,49.63
2022-08-22T22:21:13.146Z,50.34
2022-08-22T22:32:53.771Z,52.23
2022-08-22T22:45:10.585Z,53.08
2022-08-22T22:52:25.290Z,52.01
2022-08-22T23:55:34.310Z,55.75
